Skip Navigation Links Skip Navigation Links

Current Weather

Oslo / Gardermoen, Norway

For information only: do not use for flight planning or navigation.
Latest weather
Observation time Thursday, November 21, 2019 11:20 PM CET
Local time Thursday, November 21, 2019 11:28 PM CET
Flight conditions Low Instrument Meteorological Conditions
Winds
Wind direction North-Northeast (30°)
Wind speed 7 mph
Visibility 3.1 mi.
Present weather mist
Sky condition
Ceiling 400 ft. broken clouds
Cloud layer broken clouds 400 ft.
Temperature 37°F
Dewpoint 37°F
Altimeter 30.06 in.Hg
Derived measurements
Relative humidity 100%
Wind chill 32°F
Density altitude -1487 ft.
METAR ENGM 212220Z 03006KT 5000 1800NE BR BKN004 03/03 Q1018

Settings

Location code

InnerDrive.Weather 4.0.6770.0 Release CLR 4.0.30319.42000
Copyright ©2018 Inner Drive Technology. All rights reserved. Portions Copyright ©1986-2018 David Braverman.

Find weather

Site navigation


Skip Navigation Links

Place info

Page info

PayPal - The safer, easier way to pay online!

Return home.

Copyright ©2019 Inner Drive Technology. Purveyors of fine, hand-crafted computer software. Page printed 2019-11-21T22:28:50 UTC.